Time;durP1;ratioP1;P1;durP2;ratioP2;P2;SDS_P1;SDS_P2;PMS_P1;PMS_P2;Temp;Humidity;BMP_temperature;BMP_pressure;BME280_temperature;BME280_humidity;BME280_pressure;Samples;Min_cycle;Max_cycle;Signal;HPM_P1;HPM_P2
2021/04/18 00:00:22;;;;;;;9.23;5.70;;;6.00;90.40;;;;;;5110759;28;20238;-68
2021/04/18 00:02:49;;;;;;;8.70;5.83;;;5.90;90.30;;;;;;5110695;28;20174;-70
2021/04/18 00:05:17;;;;;;;11.23;6.53;;;5.90;90.70;;;;;;5110108;28;20519;-70
2021/04/18 00:07:43;;;;;;;10.30;6.10;;;5.90;91.20;;;;;;5107223;28;20453;-70
2021/04/18 00:10:10;;;;;;;10.70;6.10;;;5.80;90.70;;;;;;5099705;28;20460;-69
2021/04/18 00:12:37;;;;;;;10.20;5.90;;;5.70;90.40;;;;;;5100309;28;20218;-70
2021/04/18 00:15:06;;;;;;;11.73;6.13;;;5.70;90.70;;;;;;5107095;28;20416;-69
2021/04/18 00:17:32;;;;;;;12.63;6.70;;;5.60;90.70;;;;;;5112239;28;20424;-71
2021/04/18 00:19:58;;;;;;;11.63;6.50;;;5.60;90.20;;;;;;5094949;28;21054;-71
2021/04/18 00:22:24;;;;;;;8.90;5.60;;;5.50;90.80;;;;;;5092023;28;21085;-71
2021/04/18 00:24:50;;;;;;;8.90;5.70;;;5.60;91.10;;;;;;5092502;28;20206;-68
2021/04/18 00:27:15;;;;;;;9.43;5.93;;;5.60;91.20;;;;;;5105827;28;20594;-70
2021/04/18 00:29:41;;;;;;;11.00;6.63;;;5.60;91.10;;;;;;5095635;28;21038;-69
2021/04/18 00:32:07;;;;;;;11.73;5.97;;;5.60;91.40;;;;;;5091636;28;20193;-72
2021/04/18 00:34:33;;;;;;;11.93;6.07;;;5.60;91.30;;;;;;5105004;28;20186;-70
2021/04/18 00:36:59;;;;;;;10.23;6.33;;;5.60;91.40;;;;;;5100366;28;20480;-69
2021/04/18 00:39:24;;;;;;;12.90;7.10;;;5.50;91.30;;;;;;5111452;28;20468;-70
2021/04/18 00:41:50;;;;;;;15.23;6.30;;;5.60;91.60;;;;;;5111608;28;20239;-70
2021/04/18 00:44:16;;;;;;;10.63;6.80;;;5.60;91.50;;;;;;5111155;28;20802;-70
2021/04/18 00:46:41;;;;;;;10.57;6.73;;;5.60;91.50;;;;;;5111223;28;20189;-69
2021/04/18 00:49:08;;;;;;;10.07;6.10;;;5.60;91.70;;;;;;5111340;28;20670;-70
2021/04/18 00:51:34;;;;;;;10.30;6.40;;;5.60;91.50;;;;;;5111604;28;20183;-71
2021/04/18 00:54:01;;;;;;;8.40;5.80;;;5.60;91.30;;;;;;5109881;28;20438;-70
2021/04/18 00:56:27;;;;;;;11.77;6.97;;;5.50;91.50;;;;;;5101644;28;20417;-70
2021/04/18 00:58:53;;;;;;;10.97;7.30;;;5.50;91.60;;;;;;5093594;28;20559;-70
2021/04/18 01:01:19;;;;;;;10.73;5.83;;;5.50;91.50;;;;;;5111659;28;20231;-70
2021/04/18 01:03:45;;;;;;;12.23;6.93;;;5.50;91.60;;;;;;5110243;28;20510;-70
2021/04/18 01:06:10;;;;;;;12.27;7.23;;;5.60;91.40;;;;;;5111741;28;20239;-71
2021/04/18 01:08:36;;;;;;;13.93;6.70;;;5.60;91.30;;;;;;5110558;28;20258;-71
2021/04/18 01:11:02;;;;;;;11.70;6.67;;;5.50;91.40;;;;;;5111751;28;20178;-70
2021/04/18 01:13:28;;;;;;;10.53;6.50;;;5.50;91.20;;;;;;5111683;28;20574;-70
2021/04/18 01:15:54;;;;;;;12.03;6.73;;;5.50;91.40;;;;;;5111566;28;20413;-70
2021/04/18 01:18:20;;;;;;;11.73;6.50;;;5.40;91.10;;;;;;5111820;27;20243;-70
2021/04/18 01:20:46;;;;;;;10.30;7.17;;;5.40;91.50;;;;;;5111593;28;20467;-67
2021/04/18 01:23:11;;;;;;;13.43;7.70;;;5.40;91.50;;;;;;5111942;28;20420;-68
2021/04/18 01:25:42;;;;;;;12.50;7.50;;;5.30;91.70;;;;;;5119154;27;20189;-70
2021/04/18 01:28:09;;;;;;;13.07;7.30;;;5.30;91.90;;;;;;5116996;28;20239;-69
2021/04/18 01:30:35;;;;;;;12.07;7.70;;;5.30;91.90;;;;;;5111749;28;20428;-68
2021/04/18 01:33:03;;;;;;;12.43;7.13;;;5.30;92.00;;;;;;5111371;28;20421;-71
2021/04/18 01:35:30;;;;;;;14.57;7.80;;;5.30;92.10;;;;;;5099758;28;20436;-69
2021/04/18 01:37:56;;;;;;;14.00;7.90;;;5.20;91.90;;;;;;5093243;28;20952;-71
2021/04/18 01:40:24;;;;;;;10.70;7.40;;;5.10;92.30;;;;;;5110757;28;20475;-70
2021/04/18 01:42:51;;;;;;;12.40;7.93;;;5.10;92.40;;;;;;5109683;28;20178;-69
2021/04/18 01:45:18;;;;;;;14.07;8.13;;;5.20;93.00;;;;;;5111240;28;20448;-69
2021/04/18 01:47:45;;;;;;;17.00;9.17;;;5.20;92.80;;;;;;5109777;28;20507;-72
2021/04/18 01:50:14;;;;;;;13.20;8.87;;;5.10;92.40;;;;;;5110137;28;20599;-71
2021/04/18 01:52:40;;;;;;;11.70;8.40;;;5.20;92.70;;;;;;5095217;28;20507;-72
2021/04/18 01:55:07;;;;;;;17.23;7.77;;;5.20;92.70;;;;;;5110579;28;20420;-72
2021/04/18 01:57:34;;;;;;;13.70;8.40;;;5.20;92.70;;;;;;5109979;28;20879;-71
2021/04/18 02:00:00;;;;;;;11.50;7.60;;;5.30;92.60;;;;;;5109868;28;20456;-71
2021/04/18 02:02:26;;;;;;;12.40;7.83;;;5.30;92.30;;;;;;5110046;28;20439;-71
2021/04/18 02:04:55;;;;;;;11.10;7.23;;;5.40;92.40;;;;;;5109830;28;20428;-71
2021/04/18 02:07:20;;;;;;;14.93;8.50;;;5.30;92.00;;;;;;5109878;28;20227;-73
2021/04/18 02:09:46;;;;;;;12.93;8.10;;;5.40;92.40;;;;;;5109914;28;21075;-73
2021/04/18 02:12:12;;;;;;;13.90;8.37;;;5.40;92.40;;;;;;5109670;28;20424;-71
2021/04/18 02:14:38;;;;;;;12.40;8.10;;;5.40;92.40;;;;;;5109471;28;20419;-70
2021/04/18 02:17:04;;;;;;;14.10;8.20;;;5.40;92.60;;;;;;5109528;28;20186;-71
2021/04/18 02:19:31;;;;;;;15.60;9.17;;;5.40;92.60;;;;;;5109540;28;21267;-71
2021/04/18 02:21:58;;;;;;;14.87;9.30;;;5.50;92.80;;;;;;5110114;28;20408;-71
2021/04/18 02:24:24;;;;;;;13.73;9.20;;;5.40;92.60;;;;;;5108483;28;20428;-72
2021/04/18 02:26:50;;;;;;;11.80;9.20;;;5.40;92.80;;;;;;5110189;28;20916;-74
2021/04/18 02:29:16;;;;;;;13.30;9.07;;;5.40;93.00;;;;;;5108565;28;20463;-71
2021/04/18 02:31:42;;;;;;;13.57;8.60;;;5.40;93.00;;;;;;5109774;28;20750;-72
2021/04/18 02:34:08;;;;;;;16.17;9.77;;;5.40;93.20;;;;;;5109726;28;20467;-73
2021/04/18 02:36:34;;;;;;;17.40;9.53;;;5.40;93.10;;;;;;5109730;28;20463;-71
2021/04/18 02:39:00;;;;;;;15.70;8.50;;;5.40;93.10;;;;;;5109489;28;20460;-72
2021/04/18 02:41:25;;;;;;;14.20;8.80;;;5.40;93.00;;;;;;5110184;28;20178;-71
2021/04/18 02:43:51;;;;;;;17.27;8.80;;;5.40;92.80;;;;;;5108371;28;20186;-72
2021/04/18 02:46:17;;;;;;;15.73;9.10;;;5.40;93.00;;;;;;5109825;28;20179;-70
2021/04/18 02:48:43;;;;;;;14.40;9.00;;;5.30;92.70;;;;;;5109660;28;20178;-71
2021/04/18 02:51:08;;;;;;;14.50;8.73;;;5.30;92.70;;;;;;5103955;28;20189;-70
2021/04/18 02:53:34;;;;;;;12.70;8.67;;;5.30;92.60;;;;;;5092903;28;20184;-72
2021/04/18 02:56:00;;;;;;;15.13;9.70;;;5.40;92.90;;;;;;5111305;28;20236;-73
2021/04/18 02:58:26;;;;;;;15.13;9.30;;;5.40;92.90;;;;;;5111255;28;20500;-72
2021/04/18 03:00:51;;;;;;;14.50;9.13;;;5.40;92.80;;;;;;5109885;28;20214;-71
2021/04/18 03:03:17;;;;;;;16.20;10.07;;;5.40;92.70;;;;;;5111380;28;20278;-72
2021/04/18 03:05:43;;;;;;;18.30;9.37;;;5.40;92.80;;;;;;5112440;28;20218;-72
2021/04/18 03:08:09;;;;;;;14.53;9.10;;;5.40;92.80;;;;;;5111999;28;20466;-70
2021/04/18 03:10:35;;;;;;;18.63;10.33;;;5.40;92.50;;;;;;5108070;28;20203;-69
2021/04/18 03:13:02;;;;;;;21.27;9.80;;;5.30;92.50;;;;;;5097593;28;20186;-74
2021/04/18 03:15:28;;;;;;;15.93;9.40;;;5.30;92.80;;;;;;5108748;28;20190;-71
2021/04/18 03:17:54;;;;;;;19.40;10.13;;;5.40;93.00;;;;;;5099770;28;20421;-71
2021/04/18 03:20:20;;;;;;;15.70;10.07;;;5.40;93.10;;;;;;5098055;28;20586;-72
2021/04/18 03:22:45;;;;;;;13.60;8.90;;;5.40;93.10;;;;;;5113049;28;20412;-72
2021/04/18 03:25:12;;;;;;;13.50;9.00;;;5.40;92.80;;;;;;5112609;28;20625;-71
2021/04/18 03:27:39;;;;;;;16.00;10.40;;;5.40;92.80;;;;;;5111578;28;20174;-71
2021/04/18 03:30:08;;;;;;;16.27;9.07;;;5.50;92.60;;;;;;5093184;28;20490;-73
2021/04/18 03:32:34;;;;;;;17.10;10.27;;;5.40;92.60;;;;;;5103860;28;20450;-71
2021/04/18 03:35:00;;;;;;;16.13;9.87;;;5.50;92.60;;;;;;5113261;28;20416;-71
2021/04/18 03:37:26;;;;;;;15.80;9.07;;;5.50;92.20;;;;;;5114304;28;20444;-72
2021/04/18 03:39:52;;;;;;;14.33;9.10;;;5.50;92.20;;;;;;5104531;28;20467;-72
2021/04/18 03:42:18;;;;;;;17.70;9.57;;;5.50;92.00;;;;;;5115020;28;20419;-71
2021/04/18 03:44:44;;;;;;;14.50;9.03;;;5.40;91.90;;;;;;5113619;28;20416;-72
2021/04/18 03:47:09;;;;;;;16.30;10.13;;;5.50;91.90;;;;;;5100172;28;20243;-72
2021/04/18 03:49:35;;;;;;;18.50;9.07;;;5.50;91.80;;;;;;5113370;28;20677;-70
2021/04/18 03:52:01;;;;;;;20.83;10.47;;;5.50;91.80;;;;;;5114048;28;20972;-71
2021/04/18 03:54:27;;;;;;;15.43;9.30;;;5.50;91.90;;;;;;5115365;28;20210;-71
2021/04/18 03:56:53;;;;;;;16.90;9.77;;;5.50;91.90;;;;;;5112358;28;20428;-71
2021/04/18 03:59:19;;;;;;;16.53;10.37;;;5.60;91.80;;;;;;5094897;28;20290;-71
2021/04/18 04:01:45;;;;;;;16.40;9.57;;;5.50;91.80;;;;;;5096349;28;20494;-72
2021/04/18 04:04:11;;;;;;;16.53;10.07;;;5.50;91.70;;;;;;5103056;28;20549;-71
2021/04/18 04:06:36;;;;;;;15.67;9.27;;;5.40;91.60;;;;;;5113992;28;20500;-73
2021/04/18 04:09:03;;;;;;;17.97;9.50;;;5.40;92.00;;;;;;5106536;28;20678;-72
2021/04/18 04:11:29;;;;;;;18.10;10.23;;;5.30;91.60;;;;;;5104623;28;20266;-71
2021/04/18 04:13:55;;;;;;;16.43;10.07;;;5.10;91.90;;;;;;5098061;28;20499;-72
2021/04/18 04:16:20;;;;;;;13.87;9.23;;;5.10;92.30;;;;;;5112176;28;20269;-73
2021/04/18 04:18:46;;;;;;;17.20;10.00;;;5.10;92.20;;;;;;5111641;27;20239;-71
2021/04/18 04:21:12;;;;;;;16.20;9.87;;;5.20;92.40;;;;;;5112139;28;20179;-72
2021/04/18 04:23:38;;;;;;;15.83;8.83;;;5.30;92.40;;;;;;5111287;28;20231;-71
2021/04/18 04:26:04;;;;;;;16.73;9.30;;;5.30;91.90;;;;;;5111347;28;20262;-71
2021/04/18 04:28:30;;;;;;;16.13;9.40;;;5.40;91.70;;;;;;5103383;28;20727;-71
2021/04/18 04:30:56;;;;;;;15.63;9.23;;;5.40;91.60;;;;;;5104353;28;20444;-70
2021/04/18 04:33:22;;;;;;;14.37;9.13;;;5.40;91.60;;;;;;5111371;28;20231;-70
2021/04/18 04:35:48;;;;;;;16.47;9.70;;;5.40;91.50;;;;;;5098371;28;20429;-73
2021/04/18 04:38:13;;;;;;;18.47;10.23;;;5.40;91.70;;;;;;5091339;28;20222;-71
2021/04/18 04:40:39;;;;;;;16.90;10.50;;;5.40;91.90;;;;;;5103834;28;20234;-71
2021/04/18 04:43:05;;;;;;;17.67;11.43;;;5.40;92.00;;;;;;5104673;28;20240;-70
2021/04/18 04:45:31;;;;;;;22.97;10.97;;;5.40;92.20;;;;;;5090776;28;20186;-70
2021/04/18 04:47:56;;;;;;;18.83;10.73;;;5.40;92.30;;;;;;5097476;28;20178;-72
2021/04/18 04:50:22;;;;;;;16.07;9.40;;;5.40;92.20;;;;;;5110936;28;20853;-72
2021/04/18 04:52:48;;;;;;;17.47;9.50;;;5.50;91.90;;;;;;5109522;28;20194;-72
2021/04/18 04:55:15;;;;;;;15.30;9.67;;;5.50;91.80;;;;;;5110755;28;20431;-70
2021/04/18 04:57:41;;;;;;;15.00;9.17;;;5.50;91.90;;;;;;5090639;28;20444;-72
2021/04/18 05:00:08;;;;;;;18.93;9.33;;;5.50;91.80;;;;;;5088956;28;20480;-72
2021/04/18 05:02:34;;;;;;;22.07;10.10;;;5.60;91.80;;;;;;5090154;28;20416;-74
2021/04/18 05:05:00;;;;;;;23.93;10.20;;;5.60;91.70;;;;;;5102660;28;20420;-72
2021/04/18 05:07:25;;;;;;;20.77;9.97;;;5.60;91.70;;;;;;5110849;28;21123;-71
2021/04/18 05:09:51;;;;;;;17.60;10.80;;;5.60;91.80;;;;;;5110422;28;20202;-71
2021/04/18 05:12:17;;;;;;;20.37;10.70;;;5.60;91.70;;;;;;5107661;28;20296;-72
2021/04/18 05:14:43;;;;;;;15.83;9.70;;;5.70;91.90;;;;;;5103402;28;20178;-71
2021/04/18 05:17:09;;;;;;;16.90;9.50;;;5.70;92.00;;;;;;5110310;28;20469;-72
2021/04/18 05:19:35;;;;;;;17.20;11.47;;;5.70;91.90;;;;;;5096881;28;20473;-71
2021/04/18 05:22:01;;;;;;;18.60;10.80;;;5.70;91.90;;;;;;5095330;28;20185;-72
2021/04/18 05:24:27;;;;;;;20.23;11.40;;;5.80;92.00;;;;;;5098317;28;20206;-71
2021/04/18 05:26:53;;;;;;;19.47;11.17;;;5.80;91.70;;;;;;5109156;28;20925;-72
2021/04/18 05:29:19;;;;;;;16.13;10.50;;;5.90;91.70;;;;;;5110326;28;20467;-72
2021/04/18 05:31:46;;;;;;;18.67;10.47;;;5.90;91.80;;;;;;5110514;28;20265;-71
2021/04/18 05:34:12;;;;;;;16.53;10.30;;;5.90;91.50;;;;;;5110250;28;20800;-71
2021/04/18 05:36:38;;;;;;;15.97;9.80;;;5.90;91.10;;;;;;5110054;28;20415;-71
2021/04/18 05:39:07;;;;;;;16.37;10.07;;;5.90;91.00;;;;;;5109740;28;20476;-72
2021/04/18 05:41:33;;;;;;;19.20;10.13;;;5.90;90.80;;;;;;5095497;28;20761;-75
2021/04/18 05:43:59;;;;;;;16.70;10.27;;;5.80;91.00;;;;;;5108911;28;20499;-72
2021/04/18 05:46:25;;;;;;;16.90;10.40;;;5.70;91.50;;;;;;5110225;28;20977;-71
2021/04/18 05:48:51;;;;;;;22.03;11.90;;;5.70;91.90;;;;;;5110161;28;20413;-71
2021/04/18 05:51:16;;;;;;;16.43;10.57;;;5.70;92.00;;;;;;5092427;28;20210;-72
2021/04/18 05:53:42;;;;;;;21.73;12.77;;;5.60;92.10;;;;;;5110278;28;20182;-72
2021/04/18 05:56:08;;;;;;;17.23;10.77;;;5.60;92.30;;;;;;5110307;28;20174;-71
2021/04/18 05:58:33;;;;;;;19.03;10.70;;;5.50;92.70;;;;;;5111000;28;20174;-71
2021/04/18 06:00:59;;;;;;;18.90;10.83;;;5.50;92.70;;;;;;5111770;28;20210;-71
2021/04/18 06:03:25;;;;;;;17.33;10.70;;;5.50;92.70;;;;;;5111602;28;20178;-72
2021/04/18 06:05:51;;;;;;;20.00;10.83;;;5.60;92.70;;;;;;5110541;28;20206;-71
2021/04/18 06:08:16;;;;;;;16.90;11.00;;;5.60;92.60;;;;;;5110387;28;20269;-70
2021/04/18 06:10:42;;;;;;;15.90;10.00;;;5.70;92.20;;;;;;5108262;28;20259;-73
2021/04/18 06:13:08;;;;;;;19.03;10.80;;;5.70;92.10;;;;;;5108961;28;20182;-71
2021/04/18 06:15:33;;;;;;;23.80;10.63;;;5.80;91.50;;;;;;5109926;28;20193;-71
2021/04/18 06:17:59;;;;;;;17.90;11.43;;;5.80;91.00;;;;;;5110485;28;20186;-71
2021/04/18 06:20:25;;;;;;;18.10;11.03;;;5.80;91.10;;;;;;5110081;28;20274;-73
2021/04/18 06:22:51;;;;;;;16.40;9.70;;;6.00;91.20;;;;;;5112906;28;20300;-71
2021/04/18 06:25:16;;;;;;;16.80;10.60;;;6.00;91.20;;;;;;5102629;28;20194;-72
2021/04/18 06:27:46;;;;;;;16.37;9.97;;;6.20;90.30;;;;;;5108695;28;20194;-72
2021/04/18 06:30:13;;;;;;;20.30;10.97;;;6.20;90.00;;;;;;5109844;28;20259;-71
2021/04/18 06:32:39;;;;;;;15.57;9.10;;;6.30;89.70;;;;;;5107852;28;20431;-73
2021/04/18 06:35:06;;;;;;;19.70;10.57;;;6.40;89.30;;;;;;5109117;28;20423;-72
2021/04/18 06:37:32;;;;;;;17.93;10.83;;;6.50;89.00;;;;;;5109668;28;20231;-71
2021/04/18 06:39:58;;;;;;;19.10;10.60;;;6.60;88.70;;;;;;5109187;28;20472;-71
2021/04/18 06:42:24;;;;;;;19.33;10.40;;;6.70;88.00;;;;;;5109123;28;20424;-72
2021/04/18 06:44:51;;;;;;;17.33;10.37;;;6.80;87.40;;;;;;5088990;28;20562;-71
2021/04/18 06:47:17;;;;;;;17.43;9.97;;;6.90;86.80;;;;;;5103736;28;20420;-71
2021/04/18 06:49:43;;;;;;;21.03;10.40;;;6.90;86.50;;;;;;5109602;28;20455;-71
2021/04/18 06:52:11;;;;;;;17.00;9.73;;;7.00;86.80;;;;;;5111629;28;20424;-73
2021/04/18 06:54:36;;;;;;;16.83;10.10;;;7.10;86.20;;;;;;5093924;28;20209;-72
2021/04/18 06:57:03;;;;;;;18.37;10.20;;;7.10;85.70;;;;;;5093772;28;20921;-72
2021/04/18 06:59:28;;;;;;;15.83;10.20;;;7.20;85.50;;;;;;5091990;28;20222;-72
2021/04/18 07:01:54;;;;;;;15.70;10.47;;;7.30;84.60;;;;;;5093057;28;20417;-72
2021/04/18 07:04:22;;;;;;;17.90;10.10;;;7.40;83.30;;;;;;5101350;28;20178;-71
2021/04/18 07:06:55;;;;;;;17.10;10.10;;;7.40;83.10;;;;;;5114864;28;20325;-71
2021/04/18 07:09:25;;;;;;;19.30;10.80;;;7.50;82.70;;;;;;5103357;28;20472;-71
2021/04/18 07:11:56;;;;;;;15.80;10.23;;;7.60;82.50;;;;;;5115620;28;20420;-73
2021/04/18 07:14:23;;;;;;;22.83;11.30;;;7.70;82.10;;;;;;5115182;28;20451;-71
2021/04/18 07:16:50;;;;;;;18.77;12.30;;;7.70;81.20;;;;;;5114662;28;20412;-71
2021/04/18 07:19:24;;;;;;;20.93;11.43;;;7.60;81.40;;;;;;5105051;28;20468;-72
2021/04/18 07:21:54;;;;;;;18.20;10.60;;;7.60;81.90;;;;;;5093476;28;20861;-72
2021/04/18 07:24:22;;;;;;;19.23;9.93;;;7.60;81.70;;;;;;5093118;28;20409;-71
2021/04/18 07:26:56;;;;;;;20.97;10.97;;;7.50;81.90;;;;;;5105137;28;20429;-72
2021/04/18 07:29:23;;;;;;;18.40;10.87;;;7.60;82.10;;;;;;5091946;28;21115;-71
2021/04/18 07:31:50;;;;;;;17.87;10.40;;;7.70;81.50;;;;;;5091607;28;20488;-72
2021/04/18 07:34:21;;;;;;;18.33;10.70;;;7.70;81.20;;;;;;5092694;28;20433;-72
2021/04/18 07:36:49;;;;;;;18.83;11.00;;;7.70;81.20;;;;;;5092075;28;20421;-71
2021/04/18 07:39:17;;;;;;;17.50;11.10;;;7.90;81.10;;;;;;5092046;28;21035;-72
2021/04/18 07:41:49;;;;;;;17.57;9.43;;;7.90;81.10;;;;;;5093516;28;20413;-70
2021/04/18 07:44:18;;;;;;;17.43;9.47;;;7.90;79.70;;;;;;5105917;28;20420;-70
2021/04/18 07:46:52;;;;;;;21.53;10.80;;;8.00;79.30;;;;;;5091904;28;20426;-69
2021/04/18 07:49:19;;;;;;;16.07;9.10;;;8.00;78.90;;;;;;5092820;28;20460;-70
2021/04/18 07:51:49;;;;;;;17.17;9.33;;;7.90;78.90;;;;;;5103201;28;20802;-72
2021/04/18 07:54:17;;;;;;;19.63;10.40;;;7.90;79.00;;;;;;5112397;28;20435;-71
2021/04/18 07:56:44;;;;;;;19.03;9.60;;;7.60;80.00;;;;;;5101817;28;20980;-73
2021/04/18 07:59:14;;;;;;;20.40;10.60;;;7.80;80.80;;;;;;5092235;28;20476;-71
2021/04/18 08:01:40;;;;;;;19.73;10.60;;;7.90;80.00;;;;;;5091131;28;20464;-72
2021/04/18 08:04:06;;;;;;;18.93;10.50;;;7.90;80.20;;;;;;5096015;28;20412;-71
2021/04/18 08:06:32;;;;;;;16.70;8.67;;;7.80;79.50;;;;;;5112085;28;20455;-72
2021/04/18 08:08:58;;;;;;;18.33;9.13;;;7.80;80.30;;;;;;5112144;28;20444;-71
2021/04/18 08:11:24;;;;;;;14.07;9.77;;;7.90;79.50;;;;;;5111506;28;21296;-71
2021/04/18 08:13:52;;;;;;;19.90;8.93;;;7.80;78.90;;;;;;5093809;28;20293;-70
2021/04/18 08:16:27;;;;;;;17.60;9.03;;;7.70;79.20;;;;;;5092478;28;20996;-69
2021/04/18 08:19:04;;;;;;;19.00;9.05;;;7.80;79.30;;;;;;5096812;28;20436;-70
2021/04/18 08:21:38;;;;;;;15.80;9.00;;;7.90;79.30;;;;;;5116069;28;20432;-70
2021/04/18 08:24:08;;;;;;;14.13;7.77;;;7.90;79.50;;;;;;5113877;28;20416;-70
2021/04/18 08:26:36;;;;;;;14.17;7.30;;;7.90;77.30;;;;;;5112968;28;20425;-68
2021/04/18 08:29:03;;;;;;;12.70;6.90;;;7.90;76.50;;;;;;5113471;28;20973;-69
2021/04/18 08:31:31;;;;;;;15.23;7.10;;;7.90;75.20;;;;;;5095955;27;20449;-70
2021/04/18 08:34:04;;;;;;;15.03;8.57;;;8.10;74.80;;;;;;5092190;28;20416;-70
2021/04/18 08:36:33;;;;;;;15.10;7.10;;;8.20;74.90;;;;;;5098364;28;20503;-71
2021/04/18 08:38:59;;;;;;;15.53;6.63;;;8.30;73.30;;;;;;5111192;28;20662;-68
2021/04/18 08:41:37;;;;;;;9.73;5.57;;;8.20;71.80;;;;;;5094191;28;20451;-68
2021/04/18 08:44:15;;;;;;;8.80;5.50;;;8.20;72.30;;;;;;5091784;28;20183;-68
2021/04/18 08:46:41;;;;;;;11.63;5.63;;;8.20;70.50;;;;;;5099724;28;21201;-68
2021/04/18 08:49:09;;;;;;;12.87;5.70;;;8.20;70.80;;;;;;5098096;28;20437;-69
2021/04/18 08:51:35;;;;;;;14.20;6.33;;;8.30;71.30;;;;;;5098670;28;20413;-71
2021/04/18 08:54:01;;;;;;;13.13;5.60;;;8.50;72.00;;;;;;5097087;28;20493;-67
2021/04/18 08:56:47;;;;;;;12.60;6.20;;;8.60;72.00;;;;;;5100160;28;20440;-68
2021/04/18 08:59:14;;;;;;;12.27;7.63;;;8.70;71.80;;;;;;5109565;28;20468;-72
2021/04/18 09:01:55;;;;;;;13.43;7.30;;;8.60;70.70;;;;;;5111107;28;20431;-68
2021/04/18 09:04:21;;;;;;;13.00;8.40;;;8.40;71.80;;;;;;5112208;28;20507;-69
2021/04/18 09:06:48;;;;;;;16.70;8.73;;;8.40;71.80;;;;;;5111671;28;20538;-69
2021/04/18 09:09:15;;;;;;;13.50;6.97;;;8.40;72.30;;;;;;5114138;28;20443;-69
2021/04/18 09:11:47;;;;;;;11.33;6.77;;;8.40;72.70;;;;;;5111436;28;20429;-71
2021/04/18 09:14:16;;;;;;;14.77;7.77;;;8.50;72.70;;;;;;5110354;28;20834;-73
2021/04/18 09:16:42;;;;;;;14.83;8.30;;;8.60;71.80;;;;;;5111342;28;20431;-71
2021/04/18 09:19:26;;;;;;;20.53;8.47;;;8.60;71.70;;;;;;5109727;28;20460;-70
2021/04/18 09:22:16;;;;;;;14.47;7.37;;;8.80;72.00;;;;;;5109439;28;20510;-69
2021/04/18 09:24:51;;;;;;;17.00;8.70;;;9.20;71.30;;;;;;5111368;28;20915;-69
2021/04/18 09:27:19;;;;;;;13.43;8.10;;;9.00;69.50;;;;;;5110143;28;20453;-71
2021/04/18 09:29:47;;;;;;;14.40;8.60;;;8.60;71.10;;;;;;5111016;28;20556;-69
2021/04/18 09:32:15;;;;;;;18.27;8.60;;;8.50;72.30;;;;;;5109360;28;20434;-68
2021/04/18 09:34:43;;;;;;;14.57;9.00;;;8.50;72.30;;;;;;5110699;28;21153;-69
2021/04/18 09:37:26;;;;;;;13.33;8.43;;;8.50;71.40;;;;;;5109698;28;20432;-70
2021/04/18 09:39:55;;;;;;;14.53;8.27;;;8.60;71.70;;;;;;5109084;28;20475;-69
2021/04/18 09:42:24;;;;;;;13.57;8.27;;;8.80;71.10;;;;;;5110871;28;20867;-70
2021/04/18 09:44:52;;;;;;;13.80;8.00;;;8.90;70.80;;;;;;5110352;28;20432;-69
2021/04/18 09:47:20;;;;;;;15.20;8.20;;;8.80;71.10;;;;;;5097102;28;20479;-69
2021/04/18 09:49:52;;;;;;;15.93;8.40;;;8.80;71.70;;;;;;5103161;28;20536;-69
2021/04/18 09:52:27;;;;;;;17.87;8.63;;;8.80;71.30;;;;;;5090184;28;20425;-69
2021/04/18 09:54:53;;;;;;;16.40;8.33;;;8.90;71.40;;;;;;5090308;28;20814;-67
2021/04/18 09:57:24;;;;;;;14.40;8.83;;;9.20;71.80;;;;;;5090278;28;20515;-69
2021/04/18 10:00:08;;;;;;;13.80;8.47;;;9.20;69.10;;;;;;5089253;28;20475;-70
2021/04/18 10:02:34;;;;;;;16.07;8.97;;;9.10;69.80;;;;;;5099224;28;20789;-68
2021/04/18 10:05:15;;;;;;;14.43;8.80;;;9.20;69.90;;;;;;5111050;28;20420;-71
2021/04/18 10:07:42;;;;;;;13.97;8.63;;;9.40;69.10;;;;;;5099191;28;20908;-71
2021/04/18 10:10:10;;;;;;;15.60;8.07;;;9.40;68.80;;;;;;5098411;28;20460;-71
2021/04/18 10:12:49;;;;;;;12.50;8.30;;;9.40;68.30;;;;;;5097179;28;20439;-69
2021/04/18 10:15:15;;;;;;;17.53;8.70;;;9.50;68.80;;;;;;5093209;28;20457;-72
2021/04/18 10:17:41;;;;;;;16.03;8.67;;;9.70;68.00;;;;;;5094152;28;20429;-72
2021/04/18 10:20:08;;;;;;;15.60;8.57;;;9.80;67.00;;;;;;5105927;28;20468;-71
2021/04/18 10:22:33;;;;;;;24.30;9.93;;;10.00;66.90;;;;;;5090091;28;20179;-71
2021/04/18 10:25:05;;;;;;;19.33;9.23;;;10.20;65.70;;;;;;5090816;28;20428;-73
2021/04/18 10:27:32;;;;;;;16.90;9.27;;;10.10;65.30;;;;;;5097243;28;20194;-71
2021/04/18 10:30:01;;;;;;;15.13;9.80;;;10.20;65.40;;;;;;5093295;28;20485;-72
2021/04/18 10:32:27;;;;;;;14.40;9.07;;;10.50;64.20;;;;;;5095663;28;20417;-72
2021/04/18 10:34:53;;;;;;;15.10;8.83;;;10.80;63.50;;;;;;5089853;28;20490;-73
2021/04/18 10:37:19;;;;;;;19.63;10.10;;;10.60;61.70;;;;;;5098624;28;20182;-71
2021/04/18 10:39:45;;;;;;;16.50;9.53;;;10.10;63.90;;;;;;5091888;28;20519;-72
2021/04/18 10:42:12;;;;;;;18.43;10.40;;;10.10;65.30;;;;;;5091594;28;20485;-72
2021/04/18 10:44:39;;;;;;;13.70;8.63;;;10.20;64.20;;;;;;5108330;28;20505;-73
2021/04/18 10:47:10;;;;;;;17.73;9.53;;;10.40;64.10;;;;;;5112025;28;20813;-72
2021/04/18 10:49:36;;;;;;;21.47;9.93;;;10.70;63.10;;;;;;5109150;28;20441;-71
2021/04/18 10:52:02;;;;;;;18.27;10.20;;;10.50;63.70;;;;;;5090965;28;20428;-70
2021/04/18 10:54:27;;;;;;;17.87;9.83;;;10.60;63.70;;;;;;5101462;28;20197;-73
2021/04/18 10:56:54;;;;;;;19.90;9.40;;;10.70;63.50;;;;;;5089758;28;20202;-70
2021/04/18 10:59:21;;;;;;;16.67;9.60;;;10.70;62.60;;;;;;5088728;28;20591;-73
2021/04/18 11:01:48;;;;;;;17.63;10.10;;;10.70;63.10;;;;;;5090181;28;20437;-72
2021/04/18 11:04:15;;;;;;;17.97;10.50;;;10.70;63.20;;;;;;5094377;28;20793;-72
2021/04/18 11:06:41;;;;;;;18.10;8.93;;;10.80;63.40;;;;;;5099325;28;20428;-72
2021/04/18 11:09:08;;;;;;;16.80;10.23;;;11.20;61.90;;;;;;5092995;28;20532;-73
2021/04/18 11:11:34;;;;;;;19.30;9.50;;;11.40;60.70;;;;;;5095642;28;20421;-71
2021/04/18 11:14:00;;;;;;;17.00;8.83;;;11.50;60.10;;;;;;5093265;28;20421;-70
2021/04/18 11:16:26;;;;;;;13.40;8.83;;;11.70;58.90;;;;;;5090166;28;20534;-71
2021/04/18 11:18:52;;;;;;;11.93;8.37;;;11.40;58.90;;;;;;5108931;28;20183;-71
2021/04/18 11:21:18;;;;;;;15.63;8.60;;;11.50;59.30;;;;;;5095373;28;20211;-73
2021/04/18 11:23:44;;;;;;;15.23;9.30;;;11.30;58.90;;;;;;5107364;28;20414;-72
2021/04/18 11:26:10;;;;;;;17.93;10.70;;;11.20;59.60;;;;;;5092707;28;20638;-72
2021/04/18 11:28:35;;;;;;;14.40;9.60;;;11.40;59.50;;;;;;5105872;28;20687;-72
2021/04/18 11:31:01;;;;;;;15.43;8.90;;;11.50;58.20;;;;;;5107371;28;20475;-72
2021/04/18 11:33:27;;;;;;;15.50;8.50;;;11.50;58.40;;;;;;5112872;28;20179;-74
2021/04/18 11:35:53;;;;;;;14.57;8.23;;;11.50;58.20;;;;;;5109806;28;21089;-71
2021/04/18 11:38:20;;;;;;;14.77;8.20;;;11.50;58.40;;;;;;5109828;28;20197;-72
2021/04/18 11:40:46;;;;;;;14.93;8.83;;;11.60;59.10;;;;;;5098980;28;21189;-72
2021/04/18 11:43:12;;;;;;;12.83;8.33;;;11.80;57.80;;;;;;5098573;28;20428;-72
2021/04/18 11:45:37;;;;;;;14.83;8.23;;;11.90;58.10;;;;;;5112141;28;20554;-73
2021/04/18 11:48:04;;;;;;;14.70;8.23;;;11.90;57.60;;;;;;5112296;28;20511;-73
2021/04/18 11:50:30;;;;;;;12.10;8.13;;;12.00;57.30;;;;;;5114556;28;20750;-72
2021/04/18 11:52:55;;;;;;;16.13;8.83;;;11.60;58.50;;;;;;5116422;28;20428;-71
2021/04/18 11:55:24;;;;;;;17.43;9.50;;;11.40;59.50;;;;;;5113064;28;20808;-71
2021/04/18 11:57:50;;;;;;;15.63;9.33;;;11.10;60.30;;;;;;5095087;28;20194;-72
2021/04/18 12:00:17;;;;;;;14.87;8.73;;;10.90;61.00;;;;;;5107592;28;20459;-72
2021/04/18 12:02:45;;;;;;;15.37;9.07;;;10.90;61.30;;;;;;5110403;28;20416;-72
2021/04/18 12:05:12;;;;;;;12.37;7.03;;;11.00;61.60;;;;;;5121753;28;20421;-71
2021/04/18 12:07:38;;;;;;;15.20;8.07;;;11.10;60.90;;;;;;5122431;28;20443;-71
2021/04/18 12:10:06;;;;;;;12.50;7.57;;;11.30;60.40;;;;;;5112622;28;20455;-71
2021/04/18 12:12:32;;;;;;;12.23;7.80;;;11.40;59.90;;;;;;5103112;28;20213;-71
2021/04/18 12:14:57;;;;;;;15.60;8.83;;;11.50;59.60;;;;;;5112175;28;21066;-71
2021/04/18 12:17:23;;;;;;;22.13;9.67;;;11.60;59.30;;;;;;5111995;28;20194;-73
2021/04/18 12:19:49;;;;;;;18.80;8.50;;;11.50;59.60;;;;;;5111841;28;20221;-71
2021/04/18 12:22:14;;;;;;;16.80;8.97;;;11.40;60.70;;;;;;5112345;28;20182;-72
2021/04/18 12:24:42;;;;;;;16.10;8.73;;;11.30;60.60;;;;;;5111793;28;20193;-72
2021/04/18 12:27:08;;;;;;;15.23;9.53;;;11.40;61.00;;;;;;5104450;28;20186;-71
2021/04/18 12:29:34;;;;;;;14.30;8.77;;;11.50;60.70;;;;;;5109452;28;20971;-72
2021/04/18 12:31:59;;;;;;;11.50;8.30;;;11.70;60.10;;;;;;5091673;28;20428;-73
2021/04/18 12:34:25;;;;;;;12.10;8.17;;;11.90;59.10;;;;;;5091210;28;20231;-72
2021/04/18 12:36:51;;;;;;;15.83;9.17;;;12.10;58.70;;;;;;5092483;28;20190;-72
2021/04/18 12:39:17;;;;;;;15.10;9.40;;;12.30;57.80;;;;;;5104955;28;20262;-73
2021/04/18 12:41:42;;;;;;;15.37;9.47;;;12.10;58.10;;;;;;5091766;28;20499;-71